createdAt,value
2018-09-12T00:05:59.973Z,99.90
2018-09-12T00:08:28.490Z,99.90
2018-09-12T00:10:58.734Z,99.90
2018-09-12T00:13:27.209Z,99.90
2018-09-12T00:15:56.402Z,99.90
2018-09-12T00:18:24.928Z,99.90
2018-09-12T00:20:54.251Z,99.90
2018-09-12T00:23:23.319Z,99.90
2018-09-12T00:43:25.387Z,99.90
2018-09-12T00:45:54.741Z,99.90
2018-09-12T00:48:23.267Z,99.90
2018-09-12T00:50:52.382Z,99.90
2018-09-12T00:53:20.862Z,99.90
2018-09-12T00:55:50.006Z,99.90
2018-09-12T00:58:18.726Z,99.90
2018-09-12T01:00:47.336Z,99.90
2018-09-12T01:20:35.960Z,99.90
2018-09-12T01:23:04.499Z,99.90
2018-09-12T01:25:33.173Z,99.90
2018-09-12T01:28:01.826Z,99.90
2018-09-12T01:30:30.398Z,99.90
2018-09-12T01:32:58.964Z,99.90
2018-09-12T01:35:27.475Z,99.90
2018-09-12T01:37:55.996Z,99.90
2018-09-12T01:40:24.461Z,99.90
2018-09-12T01:42:53.237Z,99.90
2018-09-12T01:45:21.671Z,99.90
2018-09-12T01:47:52.150Z,99.90
2018-09-12T02:07:43.346Z,99.90
2018-09-12T02:10:12.999Z,99.90
2018-09-12T02:12:41.434Z,99.90
2018-09-12T02:15:09.964Z,99.90
2018-09-12T02:35:00.035Z,99.90
2018-09-12T02:37:28.606Z,99.90
2018-09-12T02:39:57.090Z,99.90
2018-09-12T02:42:26.214Z,99.90
2018-09-12T02:44:55.301Z,99.90
2018-09-12T02:47:29.063Z,99.90
2018-09-12T02:49:57.627Z,99.90
2018-09-12T02:52:26.882Z,99.90
2018-09-12T02:54:55.364Z,99.90
2018-09-12T02:57:24.078Z,99.90
2018-09-12T03:00:05.005Z,99.90
2018-09-12T03:20:12.398Z,99.90
2018-09-12T03:22:40.899Z,99.90
2018-09-12T03:25:09.412Z,99.90
2018-09-12T03:27:39.159Z,99.90
2018-09-12T03:30:08.482Z,99.90
2018-09-12T03:32:37.130Z,99.90
2018-09-12T03:35:07.007Z,99.90
2018-09-12T03:37:35.760Z,99.90
2018-09-12T03:40:05.265Z,99.90
2018-09-12T03:42:35.076Z,99.90
2018-09-12T04:02:25.070Z,99.90
2018-09-12T04:22:14.856Z,99.90
2018-09-12T04:24:43.950Z,99.90
2018-09-12T04:27:12.400Z,99.90
2018-09-12T04:29:41.036Z,99.90
2018-09-12T04:32:09.577Z,99.90
2018-09-12T04:34:39.515Z,99.90
2018-09-12T04:37:08.203Z,99.90
2018-09-12T04:39:37.698Z,99.90
2018-09-12T04:42:06.233Z,99.90
2018-09-12T04:44:35.777Z,99.90
2018-09-12T04:47:06.012Z,99.90
2018-09-12T04:49:35.130Z,99.90
2018-09-12T04:52:04.274Z,99.90
2018-09-12T04:54:32.793Z,99.90
2018-09-12T04:57:01.335Z,99.90
2018-09-12T04:59:31.406Z,99.90
2018-09-12T05:01:59.804Z,99.90
2018-09-12T05:04:28.351Z,99.90
2018-09-12T05:06:57.798Z,99.90
2018-09-12T05:26:47.903Z,99.90
2018-09-12T05:29:16.723Z,99.90
2018-09-12T05:31:45.161Z,99.90
2018-09-12T05:34:13.666Z,99.90
2018-09-12T05:36:42.230Z,99.90
2018-09-12T05:39:11.617Z,99.90
2018-09-12T05:59:01.821Z,99.90
2018-09-12T06:01:30.960Z,99.90
2018-09-12T06:03:59.457Z,99.90
2018-09-12T06:06:28.100Z,99.90
2018-09-12T06:08:56.754Z,99.90
2018-09-12T06:11:25.251Z,99.90
2018-09-12T06:13:54.278Z,99.90
2018-09-12T06:16:22.711Z,99.90
2018-09-12T06:18:51.290Z,99.90
2018-09-12T06:21:19.933Z,99.90
2018-09-12T06:23:48.957Z,99.90
2018-09-12T06:26:17.405Z,99.90
2018-09-12T06:46:08.335Z,99.90
2018-09-12T07:05:58.890Z,99.90
2018-09-12T07:08:28.447Z,99.90
2018-09-12T07:10:57.001Z,99.90
2018-09-12T07:13:25.541Z,99.90
2018-09-12T07:15:54.144Z,99.90
2018-09-12T07:18:22.673Z,99.90
2018-09-12T07:20:51.870Z,99.90
2018-09-12T07:23:20.682Z,99.90
2018-09-12T07:25:49.117Z,99.90
2018-09-12T07:28:17.570Z,99.90
2018-09-12T07:30:46.123Z,99.90
2018-09-12T07:33:14.630Z,99.90
2018-09-12T07:35:43.092Z,99.90
2018-09-12T07:38:11.621Z,99.90
2018-09-12T07:40:40.265Z,99.90
2018-09-12T07:43:08.847Z,99.90
2018-09-12T07:45:37.739Z,99.90
2018-09-12T07:48:06.612Z,99.90
2018-09-12T08:07:56.534Z,99.90
2018-09-12T08:10:26.910Z,99.90
2018-09-12T08:12:55.977Z,99.90
2018-09-12T08:15:25.573Z,99.90
2018-09-12T08:17:54.904Z,99.90
2018-09-12T08:20:23.324Z,99.90
2018-09-12T08:40:14.983Z,99.90
2018-09-12T08:42:43.964Z,99.90
2018-09-12T08:45:12.483Z,99.90
2018-09-12T08:47:41.077Z,99.90
2018-09-12T08:50:10.129Z,99.90
2018-09-12T08:52:39.027Z,99.90
2018-09-12T08:55:08.419Z,99.90
2018-09-12T09:14:58.189Z,99.90
2018-09-12T09:34:48.807Z,99.90
2018-09-12T09:37:17.245Z,99.90
2018-09-12T09:57:08.034Z,99.90
2018-09-12T09:59:36.990Z,99.90
2018-09-12T10:02:11.625Z,99.90
2018-09-12T10:04:45.434Z,99.90
2018-09-12T10:24:35.103Z,99.90
2018-09-12T10:27:03.546Z,99.90
2018-09-12T10:46:53.081Z,94.40
2018-09-12T10:49:21.574Z,93.40
2018-09-12T10:51:50.585Z,94.70
2018-09-12T10:54:20.063Z,92.60
2018-09-12T11:14:10.442Z,84.10
2018-09-12T11:16:39.012Z,85.30
2018-09-12T11:19:07.636Z,82.90
2018-09-12T11:21:37.043Z,80.60
2018-09-12T11:24:05.742Z,81.20
2018-09-12T11:26:34.171Z,82.40
2018-09-12T11:29:02.755Z,82.70
2018-09-12T11:31:31.353Z,76.30
2018-09-12T11:33:59.808Z,76.40
2018-09-12T11:36:28.356Z,75.20
2018-09-12T11:56:17.886Z,73.80
2018-09-12T11:58:46.374Z,69.70
2018-09-12T12:01:14.946Z,69.90
2018-09-12T12:03:44.658Z,68.60
2018-09-12T12:06:13.143Z,70.80
2018-09-12T12:08:41.792Z,64.50
2018-09-12T12:11:10.329Z,65.70
2018-09-12T12:13:38.936Z,64.90
2018-09-12T12:16:07.396Z,65.10
2018-09-12T12:18:35.926Z,64.30
2018-09-12T12:38:25.585Z,59.00
2018-09-12T12:40:54.085Z,58.90
2018-09-12T12:43:22.617Z,59.50
2018-09-12T12:45:51.087Z,56.80
2018-09-12T12:48:19.631Z,57.70
2018-09-12T13:08:10.170Z,55.70
2018-09-12T13:10:38.723Z,56.00
2018-09-12T13:13:07.278Z,56.50
2018-09-12T13:15:35.753Z,55.90
2018-09-12T13:18:05.074Z,56.60
2018-09-12T13:20:34.146Z,56.70
2018-09-12T13:23:02.691Z,56.20
2018-09-12T13:25:31.170Z,55.10
2018-09-12T13:28:00.671Z,55.50
2018-09-12T13:30:29.138Z,54.50
2018-09-12T13:32:57.725Z,55.50
2018-09-12T13:35:26.212Z,56.00
2018-09-12T13:55:15.579Z,52.10
2018-09-12T13:57:45.324Z,51.10
2018-09-12T14:00:13.951Z,48.30
2018-09-12T14:02:43.050Z,47.20
2018-09-12T14:05:11.412Z,47.30
2018-09-12T14:07:40.589Z,45.40
2018-09-12T14:10:09.709Z,44.20
2018-09-12T14:30:01.272Z,40.10
2018-09-12T14:32:30.456Z,39.20
2018-09-12T14:52:20.477Z,38.10
2018-09-12T14:54:49.018Z,37.10
2018-09-12T15:14:44.729Z,35.30
2018-09-12T15:34:34.581Z,33.50
2018-09-12T15:37:03.178Z,36.80
2018-09-12T15:39:31.554Z,37.40
2018-09-12T15:42:00.105Z,34.20
2018-09-12T15:44:28.525Z,33.70
2018-09-12T15:46:56.986Z,34.80
2018-09-12T16:06:48.330Z,40.00
2018-09-12T16:09:16.986Z,41.00
2018-09-12T16:29:07.793Z,54.20
2018-09-12T16:48:57.830Z,59.00
2018-09-12T16:51:26.357Z,65.80
2018-09-12T16:53:54.877Z,66.90
2018-09-12T17:13:48.245Z,81.50
2018-09-12T17:16:16.833Z,86.60
2018-09-12T17:18:45.309Z,89.60
2018-09-12T17:21:13.832Z,90.60
2018-09-12T17:23:43.044Z,91.20
2018-09-12T17:26:11.524Z,91.80
2018-09-12T17:28:40.218Z,89.80
2018-09-12T17:31:08.710Z,89.80
2018-09-12T17:33:38.169Z,89.60
2018-09-12T17:36:06.882Z,90.10
2018-09-12T17:38:35.522Z,90.10
2018-09-12T17:41:04.146Z,88.60
2018-09-12T17:43:32.763Z,88.30
2018-09-12T17:46:01.160Z,87.50
2018-09-12T17:48:29.809Z,89.30
2018-09-12T17:50:59.011Z,89.10
2018-09-12T17:53:27.481Z,89.10
2018-09-12T17:55:56.011Z,90.30
2018-09-12T17:58:24.616Z,89.80
2018-09-12T18:00:53.456Z,89.90
2018-09-12T18:03:22.038Z,90.70
2018-09-12T18:05:50.680Z,90.90
2018-09-12T18:08:19.217Z,90.40
2018-09-12T18:10:47.817Z,90.00
2018-09-12T18:13:16.485Z,90.60
2018-09-12T18:33:06.633Z,88.20
2018-09-12T18:35:35.793Z,86.40
2018-09-12T18:38:05.176Z,84.90
2018-09-12T18:57:54.741Z,91.00
2018-09-12T19:17:44.996Z,95.00
2018-09-12T19:20:13.483Z,95.30
2018-09-12T19:22:41.945Z,96.10
2018-09-12T19:25:11.966Z,96.00
2018-09-12T19:27:40.425Z,96.40
2018-09-12T19:30:09.013Z,97.40
2018-09-12T19:49:59.218Z,99.90
2018-09-12T19:52:28.330Z,99.90
2018-09-12T19:54:56.951Z,99.90
2018-09-12T19:57:25.732Z,99.90
2018-09-12T19:59:55.326Z,99.90
2018-09-12T20:02:27.160Z,99.90
2018-09-12T20:04:56.093Z,99.90
2018-09-12T20:07:25.283Z,99.90
2018-09-12T20:09:53.781Z,99.90
2018-09-12T20:12:23.633Z,99.90
2018-09-12T20:14:52.806Z,99.90
2018-09-12T20:17:21.324Z,99.90
2018-09-12T20:19:50.117Z,99.90
2018-09-12T20:22:18.605Z,99.90
2018-09-12T20:42:08.301Z,99.90
2018-09-12T20:44:36.849Z,99.90
2018-09-12T20:47:06.827Z,99.90
2018-09-12T21:06:58.410Z,99.90
2018-09-12T21:09:26.903Z,99.90
2018-09-12T21:11:55.410Z,99.90
2018-09-12T21:14:23.900Z,99.90
2018-09-12T21:16:53.002Z,99.90
2018-09-12T21:19:21.459Z,99.90
2018-09-12T21:21:49.901Z,99.90
2018-09-12T21:24:19.010Z,99.90
2018-09-12T21:26:47.495Z,99.90
2018-09-12T21:46:37.610Z,99.90
2018-09-12T21:49:06.102Z,99.90
2018-09-12T21:51:34.556Z,99.90
2018-09-12T22:11:24.114Z,99.90
2018-09-12T22:13:52.607Z,99.90
2018-09-12T22:16:22.101Z,99.90
2018-09-12T22:18:51.388Z,99.90
2018-09-12T22:21:19.885Z,99.90
2018-09-12T22:23:48.311Z,99.90
2018-09-12T22:26:16.733Z,99.90
2018-09-12T22:28:45.260Z,99.90
2018-09-12T22:31:13.714Z,99.90
2018-09-12T22:33:42.990Z,99.90
2018-09-12T22:36:12.358Z,99.90
2018-09-12T22:38:40.987Z,99.90
2018-09-12T22:41:09.664Z,99.90
2018-09-12T22:43:38.202Z,99.90
2018-09-12T22:46:06.770Z,99.90
2018-09-12T22:48:35.954Z,99.90
2018-09-12T22:51:05.133Z,99.90
2018-09-12T22:53:33.583Z,99.90
2018-09-12T22:56:02.069Z,99.90
2018-09-12T22:58:31.008Z,99.90
2018-09-12T23:00:59.636Z,99.90
2018-09-12T23:03:28.882Z,99.90
2018-09-12T23:05:57.280Z,99.90
2018-09-12T23:08:26.489Z,99.90
2018-09-12T23:10:54.987Z,99.90
2018-09-12T23:13:24.045Z,99.90
2018-09-12T23:15:52.539Z,99.90
2018-09-12T23:18:21.306Z,99.90
2018-09-12T23:20:49.735Z,99.90
2018-09-12T23:23:18.919Z,99.90
2018-09-12T23:25:48.027Z,99.90
2018-09-12T23:28:16.537Z,99.90
2018-09-12T23:30:44.981Z,99.90
2018-09-12T23:33:13.522Z,99.90
2018-09-12T23:35:41.925Z,99.90
2018-09-12T23:38:10.369Z,99.90
2018-09-12T23:40:38.906Z,99.90
2018-09-12T23:43:08.617Z,99.90
2018-09-12T23:45:37.329Z,99.90
2018-09-12T23:48:05.701Z,99.90
2018-09-12T23:50:34.287Z,99.90
2018-09-12T23:53:02.781Z,99.90
2018-09-12T23:55:31.231Z,99.90
2018-09-12T23:57:59.753Z,99.90
